Informes METAR cercanos


LEVC - Manises, Valencia, ESPAÑA
Distance from station: NNE 72km
Actualización: 26/11/2022 12:30
Despejado
Despejado
 Viento del varies
Viento: varies 4 km/h
Temperatura: 17°C
Rocío: 2°C
Humedad: 37%
Barómetro: 1029 hPa
Resumen: Despejado
Visibility: Mas de 10 km
2022/11/26 11:30 LEVC 261130Z VRB02KT CAVOK 17/02 Q1029 NOSIG
LEAL - El Altet, Alicante, ESPAÑA
Distance from station: S 70km
Actualización: 26/11/2022 12:30
Despejado
Despejado
 Viento del varies
Viento: varies 6 km/h
Temperatura: 19°C
Rocío: 4°C
Humedad: 37%
Barómetro: 1029 hPa
Resumen: Despejado
Visibility: Mas de 10 km
2022/11/26 11:30 LEAL 261130Z VRB03KT CAVOK 19/04 Q1029 NOSIG
 
LELC - San Javier, Murcia, ESPAÑA
Distance from station: SSO 188km
Actualización: 26/11/2022 12:30
Despejado
Despejado
 Viento del varies
Viento: varies 4 km/h
Temperatura: 19°C
Rocío: 7°C
Humedad: 46%
Barómetro: 1030 hPa
Resumen: Despejado
Visibility: Mas de 10 km
2022/11/26 11:30 LELC 261130Z VRB02KT CAVOK 19/07 Q1030 NOSIG
LEAB - Los Llanos, Albacete, ESPAÑA
Distance from station: O 143km
Actualización: 26/11/2022 12:30
Despejado
Despejado
 Viento del varies
Viento: varies 6 km/h
Temperatura: 11°C
Rocío: 2°C
Humedad: 54%
Barómetro: 1030 hPa
Resumen: Despejado
Visibility: Mas de 10 km
2022/11/26 11:30 LEAB 261130Z VRB03KT CAVOK 11/02 Q1030 NOSIG